createdAt,value
2019-01-12T00:01:30.528Z,101223
2019-01-12T00:03:59.397Z,101232
2019-01-12T00:06:28.221Z,101232
2019-01-12T00:08:57.073Z,101230
2019-01-12T00:11:25.917Z,101229
2019-01-12T00:13:54.762Z,101232
2019-01-12T00:16:24.196Z,101232
2019-01-12T00:18:53.104Z,101229
2019-01-12T00:21:21.909Z,101231
2019-01-12T00:23:50.784Z,101224
2019-01-12T00:26:19.609Z,101232
2019-01-12T00:28:48.447Z,101229
2019-01-12T00:31:17.291Z,101230
2019-01-12T00:33:46.125Z,101240
2019-01-12T00:36:14.987Z,101238
2019-01-12T00:38:43.819Z,101232
2019-01-12T00:41:13.758Z,101235
2019-01-12T00:43:41.487Z,101234
2019-01-12T00:46:10.331Z,101235
2019-01-12T00:48:39.183Z,101236
2019-01-12T00:51:08.020Z,101236
2019-01-12T00:53:36.901Z,101230
2019-01-12T00:56:05.707Z,101227
2019-01-12T00:58:35.289Z,101229
2019-01-12T01:01:04.145Z,101232
2019-01-12T01:03:32.979Z,101230
2019-01-12T01:06:01.838Z,101232
2019-01-12T01:08:30.668Z,101231
2019-01-12T01:10:59.511Z,101231
2019-01-12T01:13:28.346Z,101229
2019-01-12T01:15:57.928Z,101233
2019-01-12T01:18:26.761Z,101235
2019-01-12T01:20:55.617Z,101231
2019-01-12T01:23:24.468Z,101232
2019-01-12T01:25:53.290Z,101234
2019-01-12T01:28:22.133Z,101238
2019-01-12T01:30:50.979Z,101248
2019-01-12T01:33:19.814Z,101244
2019-01-12T01:35:48.639Z,101246
2019-01-12T01:38:17.482Z,101250
2019-01-12T01:40:46.313Z,101256
2019-01-12T01:43:15.136Z,101250
2019-01-12T01:45:43.974Z,101254
2019-01-12T01:48:12.809Z,101257
2019-01-12T01:50:41.663Z,101257
2019-01-12T01:53:10.508Z,101265
2019-01-12T01:55:39.351Z,101257
2019-01-12T01:58:08.186Z,101257
2019-01-12T02:00:37.020Z,101255
2019-01-12T02:03:05.886Z,101260
2019-01-12T02:05:34.725Z,101256
2019-01-12T02:08:04.294Z,101261
2019-01-12T02:10:33.150Z,101262
2019-01-12T02:13:01.994Z,101262
2019-01-12T02:15:30.833Z,101257
2019-01-12T02:17:59.670Z,101263
2019-01-12T02:20:28.507Z,101269
2019-01-12T02:22:57.352Z,101256
2019-01-12T02:25:26.196Z,101257
2019-01-12T02:27:55.024Z,101254
2019-01-12T02:30:23.908Z,101252
2019-01-12T02:32:52.695Z,101256
2019-01-12T02:35:21.523Z,101255
2019-01-12T02:37:50.364Z,101257
2019-01-12T02:40:19.209Z,101259
2019-01-12T02:42:48.042Z,101247
2019-01-12T02:45:16.891Z,101251
2019-01-12T02:47:45.742Z,101248
2019-01-12T02:50:15.386Z,101251
2019-01-12T02:52:44.160Z,101247
2019-01-12T02:55:13.010Z,101245
2019-01-12T02:57:41.838Z,101248
2019-01-12T03:00:14.218Z,101239
2019-01-12T03:02:43.812Z,101245
2019-01-12T03:05:12.652Z,101245
2019-01-12T03:07:41.490Z,101255
2019-01-12T03:10:11.075Z,101254
2019-01-12T03:12:39.890Z,101247
2019-01-12T03:15:08.745Z,101244
2019-01-12T03:17:37.594Z,101250
2019-01-12T03:20:07.336Z,101247
2019-01-12T03:22:36.168Z,101246
2019-01-12T03:25:05.014Z,101234
2019-01-12T03:27:33.852Z,101242
2019-01-12T03:30:02.694Z,101238
2019-01-12T03:32:31.524Z,101240
2019-01-12T03:35:00.408Z,101234
2019-01-12T03:37:29.223Z,101241
2019-01-12T03:39:58.034Z,101234
2019-01-12T03:42:26.884Z,101235
2019-01-12T03:44:55.721Z,101236
2019-01-12T03:47:24.546Z,101238
2019-01-12T03:49:54.126Z,101237
2019-01-12T03:52:22.960Z,101238
2019-01-12T03:54:51.807Z,101233
2019-01-12T03:57:20.635Z,101246
2019-01-12T03:59:49.503Z,101231
2019-01-12T04:02:18.360Z,101241
2019-01-12T04:04:47.185Z,101235
2019-01-12T04:07:16.030Z,101235
2019-01-12T04:09:44.866Z,101237
2019-01-12T04:12:14.438Z,101237
2019-01-12T04:14:43.282Z,101229
2019-01-12T04:17:12.134Z,101223
2019-01-12T04:19:40.968Z,101237
2019-01-12T04:22:09.798Z,101231
2019-01-12T04:24:38.646Z,101229
2019-01-12T04:27:07.490Z,101231
2019-01-12T04:29:37.059Z,101232
2019-01-12T04:32:05.900Z,101229
2019-01-12T04:34:34.728Z,101216
2019-01-12T04:37:03.575Z,101214
2019-01-12T04:39:32.418Z,101209
2019-01-12T04:42:01.256Z,101210
2019-01-12T04:44:30.108Z,101219
2019-01-12T04:46:58.942Z,101213
2019-01-12T04:49:27.789Z,101214
2019-01-12T04:51:56.612Z,101219
2019-01-12T04:54:25.457Z,101219
2019-01-12T04:56:54.323Z,101208
2019-01-12T04:59:23.173Z,101204
2019-01-12T05:01:52.004Z,101211
2019-01-12T05:04:20.834Z,101209
2019-01-12T05:06:49.688Z,101206
2019-01-12T05:09:18.528Z,101201
2019-01-12T05:11:48.147Z,101194
2019-01-12T05:14:16.952Z,101201
2019-01-12T05:16:45.780Z,101196
2019-01-12T05:19:14.612Z,101195
2019-01-12T05:21:44.198Z,101207
2019-01-12T05:24:13.036Z,101206
2019-01-12T05:26:41.862Z,101207
2019-01-12T05:29:10.698Z,101210
2019-01-12T05:31:39.546Z,101199
2019-01-12T05:34:08.380Z,101173
2019-01-12T05:36:37.212Z,101199
2019-01-12T05:39:06.047Z,101203
2019-01-12T05:41:34.880Z,101198
2019-01-12T05:44:03.712Z,101200
2019-01-12T05:46:33.290Z,101198
2019-01-12T05:49:02.134Z,101208
2019-01-12T05:51:30.979Z,101203
2019-01-12T05:53:59.822Z,101195
2019-01-12T05:56:28.660Z,101198
2019-01-12T05:58:58.096Z,101209
2019-01-12T06:01:26.924Z,101201
2019-01-12T06:03:55.762Z,101203
2019-01-12T06:06:24.602Z,101209
2019-01-12T06:08:53.443Z,101215
2019-01-12T06:11:22.272Z,101210
2019-01-12T06:13:51.100Z,101209
2019-01-12T06:16:20.683Z,101208
2019-01-12T06:18:49.519Z,101207
2019-01-12T06:21:18.350Z,101208
2019-01-12T06:23:47.180Z,101205
2019-01-12T06:26:16.762Z,101202
2019-01-12T06:28:45.595Z,101208
2019-01-12T06:31:14.444Z,101207
2019-01-12T06:33:43.282Z,101212
2019-01-12T06:36:12.108Z,101214
2019-01-12T06:38:40.937Z,101217
2019-01-12T06:41:09.771Z,101213
2019-01-12T06:43:38.606Z,101216
2019-01-12T06:46:07.450Z,101212
2019-01-12T06:48:36.294Z,101213
2019-01-12T06:51:05.134Z,101208
2019-01-12T06:53:33.972Z,101218
2019-01-12T06:56:02.818Z,101210
2019-01-12T06:58:31.637Z,101207
2019-01-12T07:01:01.213Z,101216
2019-01-12T07:03:30.054Z,101211
2019-01-12T07:05:58.888Z,101205
2019-01-12T07:08:27.723Z,101206
2019-01-12T07:10:56.570Z,101207
2019-01-12T07:13:25.398Z,101206
2019-01-12T07:15:54.239Z,101206
2019-01-12T07:18:23.078Z,101205
2019-01-12T07:20:51.938Z,101198
2019-01-12T07:23:20.791Z,101206
2019-01-12T07:25:49.616Z,101202
2019-01-12T07:28:18.456Z,101211
2019-01-12T07:30:47.289Z,101211
2019-01-12T07:33:16.133Z,101211
2019-01-12T07:35:44.986Z,101211
2019-01-12T07:38:14.568Z,101209
2019-01-12T07:40:43.406Z,101210
2019-01-12T07:43:12.268Z,101220
2019-01-12T07:45:41.853Z,101217
2019-01-12T07:48:10.710Z,101212
2019-01-12T07:50:39.552Z,101214
2019-01-12T07:53:09.154Z,101224
2019-01-12T07:55:38.012Z,101224
2019-01-12T07:58:06.916Z,101221
2019-01-12T08:00:35.714Z,101234
2019-01-12T08:03:04.565Z,101210
2019-01-12T08:05:33.409Z,101236
2019-01-12T08:08:02.992Z,101240
2019-01-12T08:10:31.816Z,101234
2019-01-12T08:13:00.668Z,101233
2019-01-12T08:15:29.506Z,101239
2019-01-12T08:17:58.374Z,101237
2019-01-12T08:20:27.208Z,101238
2019-01-12T08:22:56.042Z,101230
2019-01-12T08:25:25.651Z,101243
2019-01-12T08:27:55.252Z,101234
2019-01-12T08:30:25.275Z,101235
2019-01-12T08:32:54.118Z,101227
2019-01-12T08:35:22.955Z,101225
2019-01-12T08:37:51.792Z,101225
2019-01-12T08:40:20.648Z,101220
2019-01-12T08:42:50.434Z,101221
2019-01-12T08:45:19.260Z,101226
2019-01-12T08:47:48.102Z,101218
2019-01-12T08:50:16.938Z,101244
2019-01-12T08:52:45.793Z,101216
2019-01-12T08:55:14.613Z,101209
2019-01-12T08:57:43.452Z,101213
2019-01-12T09:00:13.251Z,101207
2019-01-12T09:02:42.082Z,101202
2019-01-12T09:05:10.908Z,101208
2019-01-12T09:07:39.732Z,101212
2019-01-12T09:10:09.538Z,101224
2019-01-12T09:12:38.349Z,101200
2019-01-12T09:15:07.197Z,101208
2019-01-12T09:17:36.648Z,101209
2019-01-12T09:20:06.224Z,101196
2019-01-12T09:22:35.070Z,101201
2019-01-12T09:25:03.984Z,101205
2019-01-12T09:27:33.512Z,101206
2019-01-12T09:30:02.355Z,101204
2019-01-12T09:32:31.204Z,101202
2019-01-12T09:35:00.238Z,101194
2019-01-12T09:37:28.892Z,101187
2019-01-12T09:39:57.742Z,101185
2019-01-12T09:42:26.576Z,101185
2019-01-12T09:44:56.154Z,101178
2019-01-12T09:47:25.013Z,101174
2019-01-12T09:49:53.883Z,101176
2019-01-12T09:52:22.698Z,101169
2019-01-12T09:54:51.663Z,101156
2019-01-12T09:57:20.537Z,101164
2019-01-12T09:59:52.337Z,101152
2019-01-12T10:02:21.177Z,101154
2019-01-12T10:04:50.769Z,101156
2019-01-12T10:07:19.632Z,101152
2019-01-12T10:09:48.468Z,101148
2019-01-12T10:12:18.060Z,101144
2019-01-12T10:14:46.924Z,101140
2019-01-12T10:17:15.772Z,101137
2019-01-12T10:19:44.634Z,101133
2019-01-12T10:22:14.225Z,101130
2019-01-12T10:24:43.054Z,101139
2019-01-12T10:27:11.890Z,101127
2019-01-12T10:29:40.745Z,101125
2019-01-12T10:32:09.581Z,101119
2019-01-12T10:34:38.433Z,101113
2019-01-12T10:37:07.264Z,101111
2019-01-12T10:39:36.100Z,101112
2019-01-12T10:42:04.948Z,101117
2019-01-12T10:44:34.528Z,101121
2019-01-12T10:47:03.400Z,101133
2019-01-12T10:49:32.224Z,101131
2019-01-12T10:52:01.801Z,101137
2019-01-12T10:54:30.630Z,101153
2019-01-12T10:57:05.365Z,101146
2019-01-12T10:59:29.103Z,101134
2019-01-12T11:01:57.938Z,101106
2019-01-12T11:04:26.776Z,101105
2019-01-12T11:06:55.610Z,101085
2019-01-12T11:09:25.176Z,101079
2019-01-12T11:11:54.010Z,101074
2019-01-12T11:14:22.852Z,101069
2019-01-12T11:16:51.686Z,101053
2019-01-12T11:19:20.529Z,101055
2019-01-12T11:21:49.356Z,101053
2019-01-12T11:24:18.927Z,101029
2019-01-12T11:26:47.765Z,101021
2019-01-12T11:29:16.618Z,101015
2019-01-12T11:31:45.462Z,101022
2019-01-12T11:34:14.299Z,101016
2019-01-12T11:36:43.146Z,101023
2019-01-12T11:39:11.992Z,101017
2019-01-12T11:41:40.820Z,101022
2019-01-12T11:44:09.667Z,101016
2019-01-12T11:46:39.248Z,101026
2019-01-12T11:49:08.095Z,101015
2019-01-12T11:51:36.950Z,101006
2019-01-12T11:54:06.525Z,101011
2019-01-12T11:56:35.362Z,101012
2019-01-12T11:59:04.192Z,101008
2019-01-12T12:01:33.022Z,101012
2019-01-12T12:04:01.899Z,101003
2019-01-12T12:06:30.774Z,101007
2019-01-12T12:08:59.606Z,101005
2019-01-12T12:11:28.443Z,101006
2019-01-12T12:13:57.272Z,100997
2019-01-12T12:16:26.888Z,100998
2019-01-12T12:18:55.702Z,100992
2019-01-12T12:21:24.547Z,100987
2019-01-12T12:23:53.377Z,100984
2019-01-12T12:26:22.215Z,100988
2019-01-12T12:28:51.066Z,100972
2019-01-12T12:31:19.914Z,100971
2019-01-12T12:33:48.772Z,100963
2019-01-12T12:36:17.619Z,100969
2019-01-12T12:38:46.457Z,100949
2019-01-12T12:41:15.312Z,100945
2019-01-12T12:43:44.160Z,100944
2019-01-12T12:46:13.804Z,100940
2019-01-12T12:48:42.615Z,100938
2019-01-12T12:51:11.461Z,100917
2019-01-12T12:53:40.303Z,100914
2019-01-12T12:56:09.255Z,100911
2019-01-12T12:58:38.007Z,100906
2019-01-12T13:01:07.602Z,100897
2019-01-12T13:03:37.193Z,100895
2019-01-12T13:06:06.042Z,100887
2019-01-12T13:08:34.905Z,100876
2019-01-12T13:11:03.767Z,100870
2019-01-12T13:13:32.585Z,100864
2019-01-12T13:16:01.432Z,100869
2019-01-12T13:18:30.392Z,100860
2019-01-12T13:20:59.961Z,100855
2019-01-12T13:23:28.816Z,100861
2019-01-12T13:25:57.652Z,100844
2019-01-12T13:28:26.491Z,100850
2019-01-12T13:30:55.313Z,100849
2019-01-12T13:33:24.151Z,100847
2019-01-12T13:35:52.994Z,100838
2019-01-12T13:38:22.627Z,100832
2019-01-12T13:40:51.424Z,100820
2019-01-12T13:43:20.251Z,100813
2019-01-12T13:45:49.105Z,100814
2019-01-12T13:48:17.954Z,100798
2019-01-12T13:50:46.799Z,100798
2019-01-12T13:53:15.651Z,100804
2019-01-12T13:55:44.488Z,100784
2019-01-12T13:58:13.329Z,100781
2019-01-12T14:00:42.156Z,100771
2019-01-12T14:03:11.007Z,100769
2019-01-12T14:05:39.844Z,100776
2019-01-12T14:08:08.683Z,100782
2019-01-12T14:10:37.527Z,100780
2019-01-12T14:13:06.362Z,100777
2019-01-12T14:15:35.196Z,100772
2019-01-12T14:18:04.032Z,100777
2019-01-12T14:20:32.129Z,100777
2019-01-12T14:23:00.970Z,100776
2019-01-12T14:25:29.837Z,100769
2019-01-12T14:27:58.674Z,100769
2019-01-12T14:30:27.518Z,100781
2019-01-12T14:32:56.364Z,100785
2019-01-12T14:35:25.188Z,100782
2019-01-12T14:37:54.039Z,100771
2019-01-12T14:40:22.893Z,100761
2019-01-12T14:42:51.739Z,100755
2019-01-12T14:45:21.380Z,100739
2019-01-12T14:47:50.215Z,100748
2019-01-12T14:50:19.062Z,100736
2019-01-12T14:52:48.644Z,100730
2019-01-12T14:55:17.632Z,100727
2019-01-12T14:57:46.449Z,100724
2019-01-12T15:00:16.856Z,100726
2019-01-12T15:02:46.964Z,100720
2019-01-12T15:05:15.424Z,100718
2019-01-12T15:07:45.002Z,100700
2019-01-12T15:10:13.856Z,100694
2019-01-12T15:12:42.703Z,100694
2019-01-12T15:15:11.556Z,100686
2019-01-12T15:17:41.149Z,100674
2019-01-12T15:20:10.941Z,100679
2019-01-12T15:22:39.794Z,100669
2019-01-12T15:25:08.621Z,100666
2019-01-12T15:27:37.463Z,100661
2019-01-12T15:30:10.180Z,100658
2019-01-12T15:32:39.029Z,100652
2019-01-12T15:35:07.871Z,100638
2019-01-12T15:37:36.710Z,100640
2019-01-12T15:40:05.556Z,100636
2019-01-12T15:42:34.405Z,100631
2019-01-12T15:45:03.263Z,100623
2019-01-12T15:47:32.128Z,100621
2019-01-12T15:50:00.960Z,100627
2019-01-12T15:52:29.830Z,100626
2019-01-12T15:54:58.680Z,100624
2019-01-12T15:57:27.525Z,100634
2019-01-12T15:59:56.431Z,100624
2019-01-12T16:02:25.250Z,100629
2019-01-12T16:04:54.100Z,100617
2019-01-12T16:07:22.946Z,100624
2019-01-12T16:09:51.797Z,100628
2019-01-12T16:12:20.638Z,100625
2019-01-12T16:14:50.255Z,100622
2019-01-12T16:17:19.100Z,100634
2019-01-12T16:19:47.953Z,100614
2019-01-12T16:22:16.804Z,100609
2019-01-12T16:24:45.666Z,100587
2019-01-12T16:27:14.520Z,100601
2019-01-12T16:29:43.364Z,100593
2019-01-12T16:32:12.217Z,100596
2019-01-12T16:34:41.049Z,100586
2019-01-12T16:37:09.909Z,100570
2019-01-12T16:39:38.746Z,100573
2019-01-12T16:42:08.334Z,100572
2019-01-12T16:44:37.202Z,100577
2019-01-12T16:47:06.066Z,100567
2019-01-12T16:49:34.902Z,100571
2019-01-12T16:52:03.756Z,100561
2019-01-12T16:54:32.592Z,100554
2019-01-12T16:57:02.180Z,100553
2019-01-12T16:59:31.047Z,100566
2019-01-12T17:01:59.895Z,100565
2019-01-12T17:04:29.478Z,100564
2019-01-12T17:06:58.337Z,100558
2019-01-12T17:09:27.185Z,100565
2019-01-12T17:11:56.033Z,100558
2019-01-12T17:14:24.866Z,100564
2019-01-12T17:16:53.706Z,100562
2019-01-12T17:19:22.557Z,100556
2019-01-12T17:21:51.426Z,100550
2019-01-12T17:24:20.270Z,100541
2019-01-12T17:26:49.111Z,100541
2019-01-12T17:29:18.147Z,100540
2019-01-12T17:31:47.701Z,100532
2019-01-12T17:34:15.641Z,100536
2019-01-12T17:36:44.475Z,100539
2019-01-12T17:39:13.318Z,100529
2019-01-12T17:41:42.186Z,100525
2019-01-12T17:44:11.049Z,100530
2019-01-12T17:46:39.907Z,100515
2019-01-12T17:49:09.485Z,100523
2019-01-12T17:51:38.328Z,100511
2019-01-12T17:54:07.179Z,100502
2019-01-12T17:56:36.045Z,100504
2019-01-12T17:59:04.890Z,100512
2019-01-12T18:01:33.707Z,100509
2019-01-12T18:04:02.549Z,100504
2019-01-12T18:06:31.382Z,100498
2019-01-12T18:09:00.215Z,100500
2019-01-12T18:11:29.907Z,100489
2019-01-12T18:13:58.632Z,100496
2019-01-12T18:16:27.471Z,100495
2019-01-12T18:18:56.309Z,100503
2019-01-12T18:21:25.152Z,100513
2019-01-12T18:23:53.987Z,100511
2019-01-12T18:26:22.829Z,100493
2019-01-12T18:28:51.685Z,100483
2019-01-12T18:31:20.675Z,100478
2019-01-12T18:33:50.119Z,100463
2019-01-12T18:36:19.710Z,100468
2019-01-12T18:38:48.550Z,100469
2019-01-12T18:41:17.367Z,100470
2019-01-12T18:43:46.199Z,100469
2019-01-12T18:46:15.073Z,100471
2019-01-12T18:48:43.881Z,100470
2019-01-12T18:51:12.716Z,100470
2019-01-12T18:53:41.555Z,100468
2019-01-12T18:56:10.377Z,100453
2019-01-12T18:58:39.203Z,100451
2019-01-12T19:01:08.046Z,100440
2019-01-12T19:03:36.895Z,100434
2019-01-12T19:06:05.739Z,100447
2019-01-12T19:08:34.579Z,100421
2019-01-12T19:11:03.427Z,100427
2019-01-12T19:13:32.259Z,100423
2019-01-12T19:16:01.096Z,100419
2019-01-12T19:18:29.961Z,100421
2019-01-12T19:20:58.809Z,100411
2019-01-12T19:23:27.699Z,100405
2019-01-12T19:25:56.538Z,100409
2019-01-12T19:28:25.363Z,100398
2019-01-12T19:30:54.198Z,100396
2019-01-12T19:33:23.768Z,100404
2019-01-12T19:35:52.638Z,100391
2019-01-12T19:38:21.454Z,100386
2019-01-12T19:40:50.296Z,100393
2019-01-12T19:43:19.125Z,100379
2019-01-12T19:45:47.954Z,100377
2019-01-12T19:48:17.524Z,100386
2019-01-12T19:50:46.412Z,100386
2019-01-12T19:53:15.253Z,100381
2019-01-12T19:55:44.834Z,100374
2019-01-12T19:58:13.672Z,100379
2019-01-12T20:00:42.508Z,100382
2019-01-12T20:03:11.344Z,100379
2019-01-12T20:05:40.173Z,100382
2019-01-12T20:08:09.010Z,100383
2019-01-12T20:10:37.860Z,100369
2019-01-12T20:13:06.718Z,100372
2019-01-12T20:15:35.572Z,100379
2019-01-12T20:18:04.405Z,100382
2019-01-12T20:20:33.253Z,100379
2019-01-12T20:23:02.081Z,100380
2019-01-12T20:25:30.922Z,100368
2019-01-12T20:27:59.756Z,100374
2019-01-12T20:30:30.399Z,100372
2019-01-12T20:33:05.855Z,100380
2019-01-12T20:35:42.401Z,100401
2019-01-12T20:38:12.140Z,100392
2019-01-12T20:43:31.417Z,100379
2019-01-12T20:46:12.204Z,100394
2019-01-12T20:48:49.877Z,100393
2019-01-12T20:51:30.622Z,100395
2019-01-12T20:54:03.875Z,100385
2019-01-12T20:56:33.466Z,100380
2019-01-12T20:59:07.975Z,100377
2019-01-12T21:04:34.258Z,100356
2019-01-12T21:09:59.165Z,100341
2019-01-12T21:15:11.651Z,100339
2019-01-12T21:17:40.484Z,100331
2019-01-12T21:20:09.320Z,100333
2019-01-12T21:22:38.155Z,100312
2019-01-12T21:25:06.997Z,100316
2019-01-12T21:27:35.838Z,100320
2019-01-12T21:30:05.518Z,100330
2019-01-12T21:32:34.363Z,100326
2019-01-12T21:35:03.206Z,100315
2019-01-12T21:37:33.051Z,100316
2019-01-12T21:40:01.899Z,100321
2019-01-12T21:42:30.767Z,100318
2019-01-12T21:44:59.598Z,100318
2019-01-12T21:47:29.213Z,100316
2019-01-12T21:49:58.010Z,100314
2019-01-12T21:52:26.867Z,100312
2019-01-12T21:54:55.729Z,100306
2019-01-12T21:57:24.566Z,100304
2019-01-12T21:59:54.183Z,100317
2019-01-12T22:02:23.061Z,100319
2019-01-12T22:04:52.641Z,100309
2019-01-12T22:07:21.496Z,100305
2019-01-12T22:09:50.331Z,100304
2019-01-12T22:12:20.030Z,100298
2019-01-12T22:14:48.815Z,100294
2019-01-12T22:17:17.719Z,100300
2019-01-12T22:19:46.518Z,100294
2019-01-12T22:22:15.357Z,100289
2019-01-12T22:24:44.191Z,100293
2019-01-12T22:27:13.041Z,100287
2019-01-12T22:29:41.875Z,100287
2019-01-12T22:32:11.484Z,100285
2019-01-12T22:34:40.326Z,100283
2019-01-12T22:37:09.163Z,100288
2019-01-12T22:39:38.001Z,100284
2019-01-12T22:42:06.867Z,100283
2019-01-12T22:44:35.691Z,100280
2019-01-12T22:47:04.550Z,100270
2019-01-12T22:49:33.387Z,100275
2019-01-12T22:52:02.247Z,100274
2019-01-12T22:54:31.092Z,100269
2019-01-12T22:56:59.920Z,100267
2019-01-12T22:59:28.787Z,100255
2019-01-12T23:01:57.633Z,100247
2019-01-12T23:04:27.212Z,100251
2019-01-12T23:06:56.042Z,100260
2019-01-12T23:09:24.888Z,100269
2019-01-12T23:11:53.738Z,100264
2019-01-12T23:14:22.559Z,100263
2019-01-12T23:16:51.397Z,100267
2019-01-12T23:19:20.977Z,100263
2019-01-12T23:21:49.815Z,100268
2019-01-12T23:24:18.660Z,100258
2019-01-12T23:26:47.505Z,100257
2019-01-12T23:29:16.341Z,100251
2019-01-12T23:31:45.176Z,100249
2019-01-12T23:34:14.011Z,100250
2019-01-12T23:36:42.850Z,100248
2019-01-12T23:39:11.694Z,100235
2019-01-12T23:41:41.276Z,100238
2019-01-12T23:44:14.795Z,100234
2019-01-12T23:46:39.702Z,100239
2019-01-12T23:49:09.281Z,100243
2019-01-12T23:51:38.122Z,100245
2019-01-12T23:54:06.959Z,100242
2019-01-12T23:56:35.794Z,100229
2019-01-12T23:59:05.370Z,100228
